createdAt,value
2023-05-10T00:00:30.305Z,1592.00
2023-05-10T00:01:30.313Z,1584.00
2023-05-10T00:02:30.413Z,1588.00
2023-05-10T00:03:30.312Z,1593.00
2023-05-10T00:04:30.190Z,1593.00
2023-05-10T00:05:30.145Z,1595.00
2023-05-10T00:06:30.107Z,1593.00
2023-05-10T00:07:30.043Z,1594.00
2023-05-10T00:08:30.075Z,1597.00
2023-05-10T00:09:29.981Z,1605.00
2023-05-10T00:10:29.944Z,1597.00
2023-05-10T00:11:29.922Z,1594.00
2023-05-10T00:12:29.867Z,1595.00
2023-05-10T00:13:30.582Z,1597.00
2023-05-10T00:14:29.900Z,1595.00
2023-05-10T00:15:29.905Z,1598.00
2023-05-10T00:16:29.926Z,1595.00
2023-05-10T00:17:29.823Z,1595.00
2023-05-10T00:18:29.799Z,1598.00
2023-05-10T00:19:29.746Z,1597.00
2023-05-10T00:20:29.692Z,1595.00
2023-05-10T00:21:29.661Z,1598.00
2023-05-10T00:22:29.681Z,1602.00
2023-05-10T00:23:29.575Z,1605.00
2023-05-10T00:24:29.526Z,1588.00
2023-05-10T00:25:29.519Z,1587.00
2023-05-10T00:26:29.561Z,1588.00
2023-05-10T00:27:29.561Z,1587.00
2023-05-10T00:28:29.967Z,1577.00
2023-05-10T00:29:29.598Z,1590.00
2023-05-10T00:30:29.640Z,1587.00
2023-05-10T00:31:29.693Z,1582.00
2023-05-10T00:32:29.653Z,1583.00
2023-05-10T00:33:29.623Z,1582.00
2023-05-10T00:34:29.544Z,1584.00
2023-05-10T00:35:29.519Z,1570.00
2023-05-10T00:36:29.480Z,1573.00
2023-05-10T00:37:29.468Z,1571.00
2023-05-10T00:38:29.439Z,1566.00
2023-05-10T00:39:29.383Z,1570.00
2023-05-10T00:40:29.377Z,1575.00
2023-05-10T00:41:29.327Z,1565.00
2023-05-10T00:42:29.353Z,1560.00
2023-05-10T00:43:29.401Z,1570.00
2023-05-10T00:44:29.412Z,1569.00
2023-05-10T00:45:29.414Z,1553.00
2023-05-10T00:46:29.626Z,1559.00
2023-05-10T00:47:29.446Z,1557.00
2023-05-10T00:48:29.971Z,1552.00
2023-05-10T00:49:29.443Z,1562.00
2023-05-10T00:50:29.478Z,1556.00
2023-05-10T00:51:29.505Z,1553.00
2023-05-10T00:52:29.535Z,1561.00
2023-05-10T00:53:29.613Z,1556.00
2023-05-10T00:54:29.590Z,1562.00
2023-05-10T00:55:29.598Z,1536.00
2023-05-10T00:56:29.651Z,1546.00
2023-05-10T00:57:29.671Z,1549.00
2023-05-10T00:58:29.692Z,1541.00
2023-05-10T00:59:29.719Z,1541.00
2023-05-10T01:00:29.755Z,1536.00
2023-05-10T01:01:29.826Z,1535.00
2023-05-10T01:02:29.864Z,1536.00
2023-05-10T01:03:29.953Z,1537.00
2023-05-10T01:04:29.731Z,1537.00
2023-05-10T01:05:29.686Z,1539.00
2023-05-10T01:06:29.632Z,1539.00
2023-05-10T01:07:29.594Z,1530.00
2023-05-10T01:08:29.604Z,1535.00
2023-05-10T01:09:29.539Z,1533.00
2023-05-10T01:10:29.526Z,1529.00
2023-05-10T01:11:29.496Z,1541.00
2023-05-10T01:12:29.512Z,1541.00
2023-05-10T01:13:29.618Z,1539.00
2023-05-10T01:14:29.381Z,1519.00
2023-05-10T01:15:29.376Z,1507.00
2023-05-10T01:16:29.380Z,1521.00
2023-05-10T01:17:29.343Z,1511.00
2023-05-10T01:18:29.517Z,1503.00
2023-05-10T01:19:29.193Z,1529.00
2023-05-10T01:20:29.147Z,1485.00
2023-05-10T01:21:29.112Z,1452.00
2023-05-10T01:22:29.081Z,1431.00
2023-05-10T01:23:29.461Z,1398.00
2023-05-10T01:24:29.063Z,1384.00
2023-05-10T01:25:29.123Z,1348.00
2023-05-10T01:26:29.123Z,1334.00
2023-05-10T01:27:29.163Z,1317.00
2023-05-10T01:28:29.228Z,1297.00
2023-05-10T01:29:29.195Z,1282.00
2023-05-10T01:30:29.292Z,1279.00
2023-05-10T01:31:29.282Z,1289.00
2023-05-10T01:32:29.259Z,1273.00
2023-05-10T01:33:29.198Z,1283.00
2023-05-10T01:34:29.157Z,1277.00
2023-05-10T01:35:29.192Z,1269.00
2023-05-10T01:36:29.068Z,1230.00
2023-05-10T01:37:29.038Z,1278.00
2023-05-10T01:38:29.060Z,1268.00
2023-05-10T01:39:28.937Z,1282.00
2023-05-10T01:40:28.924Z,1257.00
2023-05-10T01:41:28.898Z,1287.00
2023-05-10T01:42:28.825Z,1306.00
2023-05-10T01:43:28.836Z,1325.00
2023-05-10T01:44:28.781Z,1310.00
2023-05-10T01:45:28.795Z,1318.00
2023-05-10T01:46:28.701Z,1318.00
2023-05-10T01:47:28.661Z,1319.00
2023-05-10T01:48:28.643Z,1319.00
2023-05-10T01:49:28.574Z,1319.00
2023-05-10T01:50:28.544Z,1318.00
2023-05-10T01:51:28.519Z,1298.00
2023-05-10T01:52:28.488Z,1287.00
2023-05-10T01:53:28.463Z,1296.00
2023-05-10T01:54:28.394Z,1298.00
2023-05-10T01:55:28.348Z,1260.00
2023-05-10T01:56:28.316Z,1225.00
2023-05-10T01:57:28.282Z,1231.00
2023-05-10T01:58:28.527Z,1214.00
2023-05-10T01:59:28.224Z,1210.00
2023-05-10T02:00:28.233Z,1215.00
2023-05-10T02:01:28.159Z,1190.00
2023-05-10T02:02:28.159Z,1175.00
2023-05-10T02:03:28.140Z,1163.00
2023-05-10T02:04:28.058Z,1176.00
2023-05-10T02:05:28.051Z,1177.00
2023-05-10T02:06:27.993Z,1180.00
2023-05-10T02:07:27.954Z,1169.00
2023-05-10T02:08:27.930Z,1134.00
2023-05-10T02:09:27.924Z,1129.00
2023-05-10T02:10:27.919Z,1118.00
2023-05-10T02:11:27.970Z,1121.00
2023-05-10T02:12:27.847Z,1134.00
2023-05-10T02:13:27.939Z,1158.00
2023-05-10T02:14:27.899Z,1206.00
2023-05-10T02:15:27.828Z,1244.00
2023-05-10T02:16:27.714Z,1261.00
2023-05-10T02:17:27.711Z,1276.00
2023-05-10T02:18:27.665Z,1281.00
2023-05-10T02:19:27.777Z,1275.00
2023-05-10T02:20:27.808Z,1268.00
2023-05-10T02:21:27.740Z,1286.00
2023-05-10T02:22:27.743Z,1285.00
2023-05-10T02:23:27.869Z,1289.00
2023-05-10T02:24:27.872Z,1295.00
2023-05-10T02:25:27.891Z,1298.00
2023-05-10T02:26:27.911Z,1291.00
2023-05-10T02:27:27.891Z,1291.00
2023-05-10T02:28:27.935Z,1284.00
2023-05-10T02:29:28.072Z,1275.00
2023-05-10T02:30:27.958Z,1276.00
2023-05-10T02:31:28.010Z,1288.00
2023-05-10T02:32:28.032Z,1289.00
2023-05-10T02:33:27.937Z,1291.00
2023-05-10T02:34:27.968Z,1289.00
2023-05-10T02:35:27.996Z,1291.00
2023-05-10T02:36:27.845Z,1296.00
2023-05-10T02:37:27.806Z,1299.00
2023-05-10T02:38:27.821Z,1299.00
2023-05-10T02:39:27.865Z,1280.00
2023-05-10T02:40:28.884Z,1264.00
2023-05-10T02:41:27.670Z,1264.00
2023-05-10T02:42:27.652Z,1245.00
2023-05-10T02:43:27.626Z,1208.00
2023-05-10T02:44:27.629Z,1198.00
2023-05-10T02:45:27.655Z,1183.00
2023-05-10T02:46:27.720Z,1083.00
2023-05-10T02:47:27.912Z,1015.00
2023-05-10T02:48:27.460Z,946.00
2023-05-10T02:49:27.469Z,927.00
2023-05-10T02:50:27.415Z,905.00
2023-05-10T02:51:27.392Z,878.00
2023-05-10T02:52:27.373Z,845.00
2023-05-10T02:53:27.301Z,797.00
2023-05-10T02:54:27.291Z,761.00
2023-05-10T02:55:27.250Z,711.00
2023-05-10T02:56:27.278Z,663.00
2023-05-10T02:57:27.200Z,649.00
2023-05-10T02:58:27.198Z,642.00
2023-05-10T02:59:27.199Z,638.00
2023-05-10T03:00:27.146Z,621.00
2023-05-10T03:01:27.149Z,610.00
2023-05-10T03:02:27.100Z,598.00
2023-05-10T03:03:27.045Z,587.00
2023-05-10T03:04:27.089Z,591.00
2023-05-10T03:05:27.063Z,582.00
2023-05-10T03:06:26.973Z,565.00
2023-05-10T03:07:26.962Z,551.00
2023-05-10T03:08:26.938Z,552.00
2023-05-10T03:09:26.934Z,546.00
2023-05-10T03:10:26.892Z,535.00
2023-05-10T03:11:26.874Z,538.00
2023-05-10T03:12:26.832Z,542.00
2023-05-10T03:13:26.958Z,531.00
2023-05-10T03:14:28.525Z,531.00
2023-05-10T03:15:26.769Z,527.00
2023-05-10T03:16:26.865Z,522.00
2023-05-10T03:17:26.775Z,529.00
2023-05-10T03:18:26.691Z,530.00
2023-05-10T03:19:27.012Z,526.00
2023-05-10T03:20:26.646Z,518.00
2023-05-10T03:21:26.651Z,517.00
2023-05-10T03:22:26.582Z,513.00
2023-05-10T03:23:26.581Z,502.00
2023-05-10T03:24:26.554Z,516.00
2023-05-10T03:25:26.519Z,503.00
2023-05-10T03:26:26.468Z,501.00
2023-05-10T03:27:26.466Z,498.00
2023-05-10T03:28:26.424Z,490.00
2023-05-10T03:29:26.404Z,482.00
2023-05-10T03:30:26.355Z,491.00
2023-05-10T03:31:26.395Z,493.00
2023-05-10T03:32:26.361Z,481.00
2023-05-10T03:33:26.343Z,499.00
2023-05-10T03:34:26.319Z,495.00
2023-05-10T03:35:26.292Z,489.00
2023-05-10T03:36:26.290Z,491.00
2023-05-10T03:37:26.210Z,494.00
2023-05-10T03:38:26.885Z,506.00
2023-05-10T03:39:26.188Z,503.00
2023-05-10T03:40:26.133Z,503.00
2023-05-10T03:41:26.107Z,503.00
2023-05-10T03:42:26.138Z,495.00
2023-05-10T03:43:26.117Z,495.00
2023-05-10T03:44:26.050Z,500.00
2023-05-10T03:45:26.010Z,503.00
2023-05-10T03:46:26.085Z,502.00
2023-05-10T03:47:26.032Z,503.00
2023-05-10T03:48:25.941Z,501.00
2023-05-10T03:49:25.950Z,500.00
2023-05-10T03:50:25.913Z,504.00
2023-05-10T03:51:25.897Z,500.00
2023-05-10T03:52:25.871Z,505.00
2023-05-10T03:53:25.848Z,503.00
2023-05-10T03:54:25.815Z,500.00
2023-05-10T03:55:25.777Z,501.00
2023-05-10T03:56:25.790Z,503.00
2023-05-10T03:57:25.770Z,500.00
2023-05-10T03:58:25.720Z,501.00
2023-05-10T03:59:33.536Z,503.00
2023-05-10T04:00:25.688Z,501.00
2023-05-10T04:01:25.654Z,502.00
2023-05-10T04:02:25.789Z,507.00
2023-05-10T04:03:25.670Z,515.00
2023-05-10T04:04:25.757Z,522.00
2023-05-10T04:05:25.602Z,523.00
2023-05-10T04:06:25.578Z,523.00
2023-05-10T04:07:25.526Z,524.00
2023-05-10T04:08:25.493Z,528.00
2023-05-10T04:09:25.617Z,524.00
2023-05-10T04:10:25.480Z,523.00
2023-05-10T04:11:25.436Z,517.00
2023-05-10T04:12:25.432Z,519.00
2023-05-10T04:13:25.426Z,522.00
2023-05-10T04:14:25.747Z,515.00
2023-05-10T04:15:25.376Z,518.00
2023-05-10T04:16:25.390Z,525.00
2023-05-10T04:17:25.392Z,525.00
2023-05-10T04:18:25.309Z,520.00
2023-05-10T04:19:25.312Z,525.00
2023-05-10T04:20:25.351Z,528.00
2023-05-10T04:21:25.235Z,516.00
2023-05-10T04:22:25.286Z,526.00
2023-05-10T04:23:25.276Z,521.00
2023-05-10T04:24:25.183Z,521.00
2023-05-10T04:25:25.156Z,516.00
2023-05-10T04:26:25.203Z,517.00
2023-05-10T04:27:25.131Z,524.00
2023-05-10T04:28:25.091Z,519.00
2023-05-10T04:29:25.070Z,533.00
2023-05-10T04:30:25.051Z,539.00
2023-05-10T04:31:25.091Z,555.00
2023-05-10T04:32:25.002Z,556.00
2023-05-10T04:33:25.021Z,559.00
2023-05-10T04:34:24.958Z,565.00
2023-05-10T04:35:24.925Z,577.00
2023-05-10T04:36:25.536Z,598.00
2023-05-10T04:37:24.881Z,617.00
2023-05-10T04:38:24.856Z,620.00
2023-05-10T04:39:24.846Z,627.00
2023-05-10T04:40:24.833Z,626.00
2023-05-10T04:41:24.796Z,627.00
2023-05-10T04:42:24.758Z,621.00
2023-05-10T04:43:24.737Z,612.00
2023-05-10T04:44:24.767Z,615.00
2023-05-10T04:45:24.729Z,603.00
2023-05-10T04:46:24.730Z,609.00
2023-05-10T04:47:24.687Z,604.00
2023-05-10T04:48:24.712Z,600.00
2023-05-10T04:49:24.752Z,597.00
2023-05-10T04:50:24.745Z,596.00
2023-05-10T04:51:24.804Z,596.00
2023-05-10T04:52:24.787Z,608.00
2023-05-10T04:53:24.824Z,607.00
2023-05-10T04:54:24.857Z,604.00
2023-05-10T04:55:24.887Z,602.00
2023-05-10T04:56:24.883Z,603.00
2023-05-10T04:57:24.959Z,604.00
2023-05-10T04:58:24.951Z,626.00
2023-05-10T04:59:24.965Z,616.00
2023-05-10T05:00:24.988Z,607.00
2023-05-10T05:01:25.008Z,612.00
2023-05-10T05:02:25.059Z,612.00
2023-05-10T05:03:25.130Z,608.00
2023-05-10T05:04:25.117Z,606.00
2023-05-10T05:05:25.120Z,616.00
2023-05-10T05:06:25.141Z,624.00
2023-05-10T05:07:25.166Z,622.00
2023-05-10T05:08:25.211Z,619.00
2023-05-10T05:09:25.261Z,638.00
2023-05-10T05:10:25.267Z,638.00
2023-05-10T05:11:25.288Z,631.00
2023-05-10T05:12:25.342Z,634.00
2023-05-10T05:13:25.549Z,634.00
2023-05-10T05:14:25.397Z,627.00
2023-05-10T05:15:25.425Z,620.00
2023-05-10T05:16:25.466Z,618.00
2023-05-10T05:17:25.577Z,615.00
2023-05-10T05:18:25.430Z,616.00
2023-05-10T05:19:25.436Z,616.00
2023-05-10T05:20:25.444Z,616.00
2023-05-10T05:21:25.375Z,617.00
2023-05-10T05:22:25.377Z,620.00
2023-05-10T05:23:25.358Z,619.00
2023-05-10T05:24:25.350Z,616.00
2023-05-10T05:25:25.308Z,618.00
2023-05-10T05:26:25.383Z,622.00
2023-05-10T05:27:25.255Z,630.00
2023-05-10T05:28:25.339Z,636.00
2023-05-10T05:29:25.262Z,633.00
2023-05-10T05:30:25.237Z,638.00
2023-05-10T05:31:25.274Z,642.00
2023-05-10T05:32:25.188Z,638.00
2023-05-10T05:33:25.167Z,630.00
2023-05-10T05:34:25.313Z,630.00
2023-05-10T05:35:26.034Z,632.00
2023-05-10T05:36:25.103Z,635.00
2023-05-10T05:37:25.123Z,630.00
2023-05-10T05:38:25.155Z,631.00
2023-05-10T05:39:25.245Z,638.00
2023-05-10T05:40:25.195Z,638.00
2023-05-10T05:41:25.265Z,641.00
2023-05-10T05:42:25.326Z,634.00
2023-05-10T05:43:25.294Z,630.00
2023-05-10T05:44:25.316Z,629.00
2023-05-10T05:45:25.363Z,619.00
2023-05-10T05:46:25.686Z,614.00
2023-05-10T05:47:25.646Z,618.00
2023-05-10T05:48:25.448Z,614.00
2023-05-10T05:49:25.565Z,603.00
2023-05-10T05:50:25.524Z,613.00
2023-05-10T05:51:25.573Z,601.00
2023-05-10T05:52:25.939Z,595.00
2023-05-10T05:53:25.592Z,597.00
2023-05-10T05:54:29.152Z,591.00
2023-05-10T05:55:25.614Z,590.00
2023-05-10T05:56:25.699Z,580.00
2023-05-10T05:57:25.608Z,576.00
2023-05-10T05:58:25.848Z,559.00
2023-05-10T05:59:25.541Z,555.00
2023-05-10T06:00:25.515Z,560.00
2023-05-10T06:01:25.546Z,558.00
2023-05-10T06:02:25.614Z,556.00
2023-05-10T06:03:25.563Z,546.00
2023-05-10T06:04:25.547Z,543.00
2023-05-10T06:05:25.456Z,547.00
2023-05-10T06:06:25.465Z,550.00
2023-05-10T06:07:25.493Z,551.00
2023-05-10T06:08:25.392Z,552.00
2023-05-10T06:09:25.398Z,554.00
2023-05-10T06:10:25.458Z,564.00
2023-05-10T06:11:26.078Z,583.00
2023-05-10T06:12:25.426Z,580.00
2023-05-10T06:13:25.394Z,585.00
2023-05-10T06:14:25.819Z,589.00
2023-05-10T06:15:25.440Z,584.00
2023-05-10T06:16:25.397Z,579.00
2023-05-10T06:17:25.338Z,570.00
2023-05-10T06:18:25.275Z,564.00
2023-05-10T06:19:25.287Z,562.00
2023-05-10T06:20:25.310Z,564.00
2023-05-10T06:21:25.367Z,554.00
2023-05-10T06:22:25.393Z,551.00
2023-05-10T06:23:25.417Z,541.00
2023-05-10T06:24:25.454Z,541.00
2023-05-10T06:25:25.488Z,527.00
2023-05-10T06:26:25.579Z,508.00
2023-05-10T06:27:25.559Z,505.00
2023-05-10T06:28:25.589Z,505.00
2023-05-10T06:29:28.738Z,502.00
2023-05-10T06:30:25.625Z,498.00
2023-05-10T06:31:25.553Z,491.00
2023-05-10T06:32:25.504Z,480.00
2023-05-10T06:33:25.506Z,500.00
2023-05-10T06:34:25.505Z,505.00
2023-05-10T06:35:25.443Z,502.00
2023-05-10T06:36:25.438Z,502.00
2023-05-10T06:37:25.407Z,503.00
2023-05-10T06:38:25.465Z,495.00
2023-05-10T06:39:25.432Z,495.00
2023-05-10T06:40:25.397Z,472.00
2023-05-10T06:41:25.347Z,462.00
2023-05-10T06:42:25.345Z,500.00
2023-05-10T06:43:25.360Z,504.00
2023-05-10T06:44:25.404Z,504.00
2023-05-10T06:45:25.316Z,500.00
2023-05-10T06:46:25.318Z,516.00
2023-05-10T06:47:25.336Z,508.00
2023-05-10T06:48:25.290Z,503.00
2023-05-10T06:49:25.472Z,501.00
2023-05-10T06:50:25.454Z,500.00
2023-05-10T06:51:25.428Z,500.00
2023-05-10T06:52:25.546Z,502.00
2023-05-10T06:53:25.496Z,500.00
2023-05-10T06:54:25.557Z,505.00
2023-05-10T06:55:25.687Z,507.00
2023-05-10T06:56:25.609Z,500.00
2023-05-10T06:58:25.612Z,501.00
2023-05-10T06:59:25.646Z,496.00
2023-05-10T07:00:25.676Z,498.00
2023-05-10T07:01:25.620Z,484.00
2023-05-10T07:02:25.580Z,479.00
2023-05-10T07:03:25.507Z,466.00
2023-05-10T07:04:25.544Z,461.00
2023-05-10T07:05:25.575Z,500.00
2023-05-10T07:06:32.853Z,503.00
2023-05-10T07:07:26.448Z,500.00
2023-05-10T07:08:25.422Z,484.00
2023-05-10T07:09:25.445Z,480.00
2023-05-10T07:10:25.398Z,473.00
2023-05-10T07:11:25.392Z,462.00
2023-05-10T07:12:25.412Z,503.00
2023-05-10T07:13:25.422Z,500.00
2023-05-10T07:14:25.329Z,500.00
2023-05-10T07:15:25.364Z,500.00
2023-05-10T07:16:25.318Z,509.00
2023-05-10T07:17:25.362Z,500.00
2023-05-10T07:18:25.340Z,509.00
2023-05-10T07:19:25.267Z,503.00
2023-05-10T07:20:25.330Z,500.00
2023-05-10T07:21:25.422Z,503.00
2023-05-10T07:22:25.391Z,499.00
2023-05-10T07:23:25.436Z,509.00
2023-05-10T07:24:25.440Z,504.00
2023-05-10T07:25:25.531Z,500.00
2023-05-10T07:26:25.549Z,498.00
2023-05-10T07:27:25.555Z,507.00
2023-05-10T07:28:25.609Z,502.00
2023-05-10T07:29:25.634Z,500.00
2023-05-10T07:30:25.699Z,507.00
2023-05-10T07:31:25.706Z,502.00
2023-05-10T07:32:25.836Z,502.00
2023-05-10T07:33:25.831Z,500.00
2023-05-10T07:34:25.834Z,513.00
2023-05-10T07:35:25.877Z,514.00
2023-05-10T07:36:25.941Z,513.00
2023-05-10T07:37:25.988Z,517.00
2023-05-10T07:38:25.985Z,544.00
2023-05-10T07:39:27.961Z,563.00
2023-05-10T07:40:26.117Z,560.00
2023-05-10T07:41:26.116Z,551.00
2023-05-10T07:42:26.164Z,561.00
2023-05-10T07:43:26.226Z,590.00
2023-05-10T07:44:26.315Z,606.00
2023-05-10T07:45:32.456Z,623.00
2023-05-10T07:46:26.479Z,624.00
2023-05-10T07:47:26.242Z,630.00
2023-05-10T07:48:26.214Z,644.00
2023-05-10T07:49:26.248Z,660.00
2023-05-10T07:50:26.183Z,742.00
2023-05-10T07:51:27.093Z,784.00
2023-05-10T07:52:26.137Z,837.00
2023-05-10T07:53:26.128Z,849.00
2023-05-10T07:54:26.099Z,901.00
2023-05-10T07:55:28.639Z,908.00
2023-05-10T07:56:26.304Z,911.00
2023-05-10T07:57:26.277Z,931.00
2023-05-10T07:58:26.365Z,1070.00
2023-05-10T07:59:26.317Z,3357.00
2023-05-10T08:00:29.698Z,3331.00
2023-05-10T08:01:26.357Z,2707.00
2023-05-10T08:02:26.447Z,2350.00
2023-05-10T08:03:27.210Z,2138.00
2023-05-10T08:04:26.310Z,2078.00
2023-05-10T08:05:26.256Z,2055.00
2023-05-10T08:06:26.217Z,2054.00
2023-05-10T08:07:26.213Z,2085.00
2023-05-10T08:08:26.152Z,2113.00
2023-05-10T08:09:26.172Z,2139.00
2023-05-10T08:10:27.114Z,2161.00
2023-05-10T08:11:26.243Z,2208.00
2023-05-10T08:12:26.643Z,2210.00
2023-05-10T08:13:26.268Z,2217.00
2023-05-10T08:14:26.648Z,2241.00
2023-05-10T08:15:30.217Z,2290.00
2023-05-10T08:16:25.974Z,2215.00
2023-05-10T08:17:26.042Z,2238.00
2023-05-10T08:18:25.867Z,2287.00
2023-05-10T08:19:25.878Z,2218.00
2023-05-10T08:20:25.868Z,2260.00
2023-05-10T08:21:26.625Z,2350.00
2023-05-10T08:22:25.708Z,2475.00
2023-05-10T08:23:25.662Z,2643.00
2023-05-10T08:24:25.637Z,2679.00
2023-05-10T08:25:25.676Z,2711.00
2023-05-10T08:26:25.574Z,2751.00
2023-05-10T08:27:25.529Z,2760.00
2023-05-10T08:28:25.659Z,2784.00
2023-05-10T08:29:26.750Z,2797.00
2023-05-10T08:30:25.533Z,2839.00
2023-05-10T08:31:25.464Z,2878.00
2023-05-10T08:32:25.409Z,2898.00
2023-05-10T08:33:25.312Z,2943.00
2023-05-10T08:34:25.483Z,2953.00
2023-05-10T08:35:25.482Z,2936.00
2023-05-10T08:36:26.448Z,2910.00
2023-05-10T08:37:25.182Z,2778.00
2023-05-10T08:38:25.179Z,2727.00
2023-05-10T08:39:30.499Z,2735.00
2023-05-10T08:40:26.106Z,2735.00
2023-05-10T08:41:25.131Z,2727.00
2023-05-10T08:42:25.057Z,2686.00
2023-05-10T08:43:25.012Z,2620.00
2023-05-10T08:44:24.987Z,2640.00
2023-05-10T08:45:24.967Z,2613.00
2023-05-10T08:46:25.032Z,2618.00
2023-05-10T08:47:24.911Z,2613.00
2023-05-10T08:48:24.902Z,2651.00
2023-05-10T08:49:24.830Z,2303.00
2023-05-10T08:50:24.867Z,1786.00
2023-05-10T08:51:24.860Z,1512.00
2023-05-10T08:52:24.826Z,1217.00
2023-05-10T08:53:24.832Z,1004.00
2023-05-10T08:54:24.816Z,858.00
2023-05-10T08:55:24.831Z,726.00
2023-05-10T08:56:24.777Z,639.00
2023-05-10T08:57:25.635Z,587.00
2023-05-10T08:58:24.785Z,534.00
2023-05-10T08:59:24.787Z,497.00
2023-05-10T09:00:24.849Z,500.00
2023-05-10T09:01:24.888Z,500.00
2023-05-10T09:02:24.865Z,500.00
2023-05-10T09:03:24.825Z,511.00
2023-05-10T09:04:25.114Z,510.00
2023-05-10T09:05:24.919Z,518.00
2023-05-10T09:06:24.864Z,537.00
2023-05-10T09:07:24.863Z,564.00
2023-05-10T09:08:24.859Z,604.00
2023-05-10T09:09:25.074Z,660.00
2023-05-10T09:10:25.132Z,808.00
2023-05-10T09:11:24.912Z,923.00
2023-05-10T09:12:24.899Z,1009.00
2023-05-10T09:13:24.906Z,1082.00
2023-05-10T09:14:24.910Z,1114.00
2023-05-10T09:15:24.906Z,1185.00
2023-05-10T09:16:24.954Z,1265.00
2023-05-10T09:17:25.030Z,1264.00
2023-05-10T09:18:27.840Z,1349.00
2023-05-10T09:19:24.890Z,1372.00
2023-05-10T09:20:24.914Z,1437.00
2023-05-10T09:21:24.827Z,1446.00
2023-05-10T09:22:24.806Z,1509.00
2023-05-10T09:23:24.842Z,1535.00
2023-05-10T09:24:24.752Z,1555.00
2023-05-10T09:25:24.820Z,1624.00
2023-05-10T09:26:24.717Z,1650.00
2023-05-10T09:27:24.708Z,1715.00
2023-05-10T09:28:24.687Z,1719.00
2023-05-10T09:29:24.646Z,1729.00
2023-05-10T09:30:24.636Z,1762.00
2023-05-10T09:31:24.606Z,1785.00
2023-05-10T09:32:24.607Z,1807.00
2023-05-10T09:33:24.704Z,1846.00
2023-05-10T09:34:24.565Z,1890.00
2023-05-10T09:35:25.864Z,1897.00
2023-05-10T09:36:24.777Z,1898.00
2023-05-10T09:37:24.734Z,1905.00
2023-05-10T09:38:24.743Z,1938.00
2023-05-10T09:39:24.729Z,1976.00
2023-05-10T09:40:24.721Z,2026.00
2023-05-10T09:41:25.675Z,2020.00
2023-05-10T09:42:24.712Z,2130.00
2023-05-10T09:43:24.675Z,2076.00
2023-05-10T09:44:24.671Z,2090.00
2023-05-10T09:45:24.753Z,2159.00
2023-05-10T09:46:25.301Z,2172.00
2023-05-10T09:47:24.662Z,2213.00
2023-05-10T09:48:24.568Z,2203.00
2023-05-10T09:49:24.533Z,2218.00
2023-05-10T09:50:24.548Z,2260.00
2023-05-10T09:51:24.490Z,2306.00
2023-05-10T09:52:24.478Z,2340.00
2023-05-10T09:53:24.451Z,2376.00
2023-05-10T09:54:24.432Z,2375.00
2023-05-10T09:55:24.448Z,2367.00
2023-05-10T09:56:24.410Z,2306.00
2023-05-10T09:57:24.379Z,2277.00
2023-05-10T09:58:24.358Z,2238.00
2023-05-10T09:59:24.365Z,2305.00
2023-05-10T10:00:24.335Z,2307.00
2023-05-10T10:01:24.391Z,2332.00
2023-05-10T10:02:24.321Z,2310.00
2023-05-10T10:03:24.279Z,2266.00
2023-05-10T10:04:25.198Z,2225.00
2023-05-10T10:05:24.216Z,2216.00
2023-05-10T10:06:29.902Z,2169.00
2023-05-10T10:07:25.200Z,2169.00
2023-05-10T10:08:24.166Z,2172.00
2023-05-10T10:09:24.140Z,2174.00
2023-05-10T10:10:24.123Z,2157.00
2023-05-10T10:11:24.184Z,2126.00
2023-05-10T10:12:24.048Z,2080.00
2023-05-10T10:13:24.049Z,2009.00
2023-05-10T10:14:24.014Z,2015.00
2023-05-10T10:15:24.084Z,2070.00
2023-05-10T10:16:24.122Z,2090.00
2023-05-10T10:17:24.118Z,2119.00
2023-05-10T10:18:23.945Z,2183.00
2023-05-10T10:19:23.933Z,2219.00
2023-05-10T10:20:23.989Z,2301.00
2023-05-10T10:21:23.857Z,2344.00
2023-05-10T10:22:23.817Z,2323.00
2023-05-10T10:23:23.792Z,2356.00
2023-05-10T10:24:23.752Z,2376.00
2023-05-10T10:25:23.721Z,2381.00
2023-05-10T10:26:23.707Z,2392.00
2023-05-10T10:27:23.658Z,2347.00
2023-05-10T10:28:24.276Z,2393.00
2023-05-10T10:29:23.630Z,2323.00
2023-05-10T10:30:23.738Z,2309.00
2023-05-10T10:32:23.747Z,2149.00
2023-05-10T10:33:28.585Z,2075.00
2023-05-10T10:34:24.734Z,2037.00
2023-05-10T10:35:23.709Z,2027.00
2023-05-10T10:36:23.678Z,1971.00
2023-05-10T10:37:23.650Z,1822.00
2023-05-10T10:38:23.650Z,1721.00
2023-05-10T10:39:23.611Z,1632.00
2023-05-10T10:40:23.575Z,1543.00
2023-05-10T10:41:23.619Z,1497.00
2023-05-10T10:42:23.554Z,1477.00
2023-05-10T10:43:23.584Z,1474.00
2023-05-10T10:44:23.574Z,1422.00
2023-05-10T10:45:23.480Z,1377.00
2023-05-10T10:46:23.477Z,1339.00
2023-05-10T10:47:23.469Z,1300.00
2023-05-10T10:48:23.388Z,1292.00
2023-05-10T10:49:23.431Z,1349.00
2023-05-10T10:50:23.448Z,1405.00
2023-05-10T10:51:23.386Z,1416.00
2023-05-10T10:52:24.235Z,1513.00
2023-05-10T10:53:23.429Z,1540.00
2023-05-10T10:54:23.298Z,1634.00
2023-05-10T10:55:23.340Z,1640.00
2023-05-10T10:56:23.229Z,1681.00
2023-05-10T10:57:23.269Z,1740.00
2023-05-10T10:58:23.164Z,1837.00
2023-05-10T10:59:23.136Z,1877.00
2023-05-10T11:00:23.324Z,1873.00
2023-05-10T11:01:23.135Z,1903.00
2023-05-10T11:02:23.122Z,1916.00
2023-05-10T11:03:23.048Z,1888.00
2023-05-10T11:04:23.122Z,1946.00
2023-05-10T11:05:23.045Z,1962.00
2023-05-10T11:06:23.081Z,1954.00
2023-05-10T11:07:23.177Z,1913.00
2023-05-10T11:08:23.110Z,1882.00
2023-05-10T11:09:23.123Z,1877.00
2023-05-10T11:10:23.377Z,1886.00
2023-05-10T11:11:23.193Z,1871.00
2023-05-10T11:12:23.148Z,1866.00
2023-05-10T11:13:23.162Z,1883.00
2023-05-10T11:14:23.120Z,1884.00
2023-05-10T11:15:23.114Z,1839.00
2023-05-10T11:16:23.123Z,1827.00
2023-05-10T11:17:23.137Z,1816.00
2023-05-10T11:18:23.050Z,1815.00
2023-05-10T11:19:23.037Z,1784.00
2023-05-10T11:20:23.037Z,1765.00
2023-05-10T11:21:23.191Z,1755.00
2023-05-10T11:22:22.939Z,1693.00
2023-05-10T11:23:23.066Z,1601.00
2023-05-10T11:24:23.714Z,1507.00
2023-05-10T11:25:22.907Z,1390.00
2023-05-10T11:26:22.867Z,1329.00
2023-05-10T11:27:23.070Z,1288.00
2023-05-10T11:28:24.748Z,1261.00
2023-05-10T11:29:22.801Z,1111.00
2023-05-10T11:30:22.839Z,1033.00
2023-05-10T11:31:22.962Z,964.00
2023-05-10T11:32:22.859Z,966.00
2023-05-10T11:33:22.755Z,987.00
2023-05-10T11:34:22.768Z,1006.00
2023-05-10T11:35:22.753Z,998.00
2023-05-10T11:36:23.365Z,987.00
2023-05-10T11:37:22.682Z,942.00
2023-05-10T11:38:22.662Z,889.00
2023-05-10T11:39:22.656Z,939.00
2023-05-10T11:40:23.234Z,940.00
2023-05-10T11:41:22.637Z,966.00
2023-05-10T11:42:22.602Z,962.00
2023-05-10T11:43:22.598Z,1009.00
2023-05-10T11:44:22.647Z,1064.00
2023-05-10T11:45:22.561Z,1032.00
2023-05-10T11:46:22.610Z,1105.00
2023-05-10T11:47:22.570Z,1327.00
2023-05-10T11:48:22.531Z,1489.00
2023-05-10T11:49:22.471Z,1736.00
2023-05-10T11:50:22.441Z,1716.00
2023-05-10T11:51:22.717Z,1743.00
2023-05-10T11:52:22.440Z,1691.00
2023-05-10T11:53:24.749Z,1663.00
2023-05-10T11:54:22.388Z,1686.00
2023-05-10T11:55:22.514Z,1730.00
2023-05-10T11:56:22.348Z,1728.00
2023-05-10T11:57:22.314Z,1727.00
2023-05-10T11:58:22.464Z,1638.00
2023-05-10T11:59:22.248Z,1665.00
2023-05-10T12:00:22.315Z,1487.00
2023-05-10T12:01:22.258Z,1374.00
2023-05-10T12:02:22.193Z,1336.00
2023-05-10T12:03:22.312Z,1426.00
2023-05-10T12:04:22.284Z,1394.00
2023-05-10T12:05:22.141Z,1395.00
2023-05-10T12:06:22.143Z,1408.00
2023-05-10T12:07:22.087Z,1422.00
2023-05-10T12:08:22.073Z,1416.00
2023-05-10T12:09:35.427Z,1416.00
2023-05-10T12:10:23.748Z,1366.00
2023-05-10T12:11:22.041Z,1321.00
2023-05-10T12:12:22.002Z,1286.00
2023-05-10T12:13:21.941Z,1348.00
2023-05-10T12:14:21.931Z,1310.00
2023-05-10T12:15:21.936Z,1266.00
2023-05-10T12:16:21.912Z,1215.00
2023-05-10T12:17:21.863Z,1184.00
2023-05-10T12:18:21.854Z,1181.00